This is the latest recevied weather packets stored in our database for station/object IU1OLT-5. If no packets are shown the sender has not sent any weather packets the latest 10 day(s).
| Time | Temp. | Humidity | Pressure | Rain* | Wind** | Luminosity | Snow |
|---|---|---|---|---|---|---|---|
| 1777449312 | 18.89° C | 56% | 1016.3 hPa | 0 mm | - | 479 W/m² | - |
| 1777448412 | 18.89° C | 59% | 1016.2 hPa | 0 mm | - | 418 W/m² | - |
| 1777447511 | 17.22° C | 61% | 1016.2 hPa | 0 mm | - | 191 W/m² | - |
| 1777446611 | 17.22° C | 57% | 1016 hPa | 0 mm | - | 350 W/m² | - |
| 1777445711 | 16.11° C | 58% | 1016 hPa | 0 mm | - | 253 W/m² | - |
| 1777444810 | 15.56° C | 58% | 1015.8 hPa | 0 mm | - | 222 W/m² | - |
| 1777443910 | 15° C | 59% | 1016 hPa | 0 mm | - | 208 W/m² | - |
| 1777443010 | 15° C | 64% | 1016 hPa | 0 mm | - | 156 W/m² | - |
| 1777442110 | 13.89° C | 63% | 1015.9 hPa | 0 mm | - | 125 W/m² | - |
| 1777441209 | 13.33° C | 65% | 1015.9 hPa | 0 mm | - | 93 W/m² | - |
| 1777440309 | 13.33° C | 64% | 1015.8 hPa | 0 mm | - | 62 W/m² | - |
| 1777439409 | 12.78° C | 64% | 1015.7 hPa | 0 mm | - | 43 W/m² | - |
| 1777438508 | 12.78° C | 65% | 1015.5 hPa | 0 mm | - | 27 W/m² | - |
| 1777437608 | 12.22° C | 66% | 1015.3 hPa | 0 mm | - | 14 W/m² | - |
| 1777436708 | 12.22° C | 66% | 1015.2 hPa | 0 mm | - | 4 W/m² | - |
| 1777435807 | 12.22° C | 68% | 1015.4 hPa | 0 mm | - | 0 W/m² | - |
| 1777434907 | 12.78° C | 66% | 1015.6 hPa | 0 mm | - | 0 W/m² | - |
| 1777434006 | 12.22° C | 68% | 1015.7 hPa | 0 mm | - | 0 W/m² | - |
| 1777433106 | 12.22° C | 70% | 1015.7 hPa | 0 mm | - | 0 W/m² | - |
| 1777432205 | 12.22° C | 69% | 1015.8 hPa | 0 mm | - | 0 W/m² | - |
| 1777431305 | 12.22° C | 72% | 1015.7 hPa | 0 mm | - | 0 W/m² | - |
| 1777430405 | 12.78° C | 69% | 1015.7 hPa | 0 mm | - | 0 W/m² | - |
| 1777429505 | 13.89° C | 63% | 1015.9 hPa | 0 mm | - | 0 W/m² | - |
| 1777428605 | 13.33° C | 64% | 1015.7 hPa | 0 mm | - | 0 W/m² | - |
| 1777427704 | 13.33° C | 64% | 1015.8 hPa | 0 mm | - | 0 W/m² | - |
* Rain latest hour (hover to see other rain measurements)
** Current wind speed in m/s (hover to see current wind gust speed)